createdAt,value
2019-02-16T00:00:15.473Z,73.38
2019-02-16T00:02:43.870Z,73.49
2019-02-16T00:05:12.263Z,73.46
2019-02-16T00:07:40.658Z,73.57
2019-02-16T00:10:09.189Z,73.62
2019-02-16T00:12:37.593Z,73.58
2019-02-16T00:15:07.909Z,73.59
2019-02-16T00:17:36.327Z,73.52
2019-02-16T00:20:07.300Z,73.44
2019-02-16T00:22:35.700Z,73.35
2019-02-16T00:25:05.124Z,73.30
2019-02-16T00:27:33.526Z,73.37
2019-02-16T00:30:01.924Z,73.26
2019-02-16T00:32:30.322Z,73.30
2019-02-16T00:34:58.716Z,73.34
2019-02-16T00:37:27.122Z,73.38
2019-02-16T00:39:55.509Z,73.32
2019-02-16T00:42:23.976Z,73.26
2019-02-16T00:44:52.369Z,73.20
2019-02-16T00:47:20.800Z,73.29
2019-02-16T00:49:49.188Z,73.35
2019-02-16T00:52:17.585Z,73.36
2019-02-16T00:54:45.981Z,73.31
2019-02-16T00:57:14.372Z,73.27
2019-02-16T00:59:42.769Z,73.43
2019-02-16T01:02:11.162Z,73.43
2019-02-16T01:04:39.560Z,73.46
2019-02-16T01:07:07.954Z,73.55
2019-02-16T01:09:36.347Z,73.61
2019-02-16T01:12:04.738Z,73.51
2019-02-16T01:14:33.133Z,73.31
2019-02-16T01:17:01.545Z,73.11
2019-02-16T01:19:29.934Z,73.16
2019-02-16T01:21:58.331Z,73.25
2019-02-16T01:24:26.738Z,73.30
2019-02-16T01:26:55.134Z,73.39
2019-02-16T01:29:23.526Z,73.31
2019-02-16T01:31:51.922Z,73.30
2019-02-16T01:34:20.320Z,73.16
2019-02-16T01:36:48.711Z,73.10
2019-02-16T01:39:17.106Z,73.08
2019-02-16T01:41:47.486Z,73.30
2019-02-16T01:44:15.631Z,73.08
2019-02-16T01:46:44.039Z,73.13
2019-02-16T01:49:12.428Z,73.32
2019-02-16T01:51:40.817Z,73.49
2019-02-16T01:54:09.232Z,73.68
2019-02-16T01:56:37.616Z,73.60
2019-02-16T01:59:06.014Z,73.46
2019-02-16T02:01:34.403Z,73.56
2019-02-16T02:04:02.809Z,73.52
2019-02-16T02:06:31.209Z,73.41
2019-02-16T02:08:59.610Z,73.25
2019-02-16T02:11:28.005Z,73.09
2019-02-16T02:13:56.411Z,72.99
2019-02-16T02:16:24.802Z,73.05
2019-02-16T02:18:53.198Z,72.97
2019-02-16T02:21:21.591Z,72.95
2019-02-16T02:23:49.992Z,72.93
2019-02-16T02:26:18.385Z,73.06
2019-02-16T02:28:46.772Z,73.12
2019-02-16T02:31:15.167Z,73.34
2019-02-16T02:33:43.561Z,73.57
2019-02-16T02:36:11.950Z,73.71
2019-02-16T02:38:40.342Z,73.72
2019-02-16T02:41:08.765Z,73.88
2019-02-16T02:43:37.151Z,73.81
2019-02-16T02:46:05.550Z,73.78
2019-02-16T02:48:33.938Z,74.06
2019-02-16T02:51:02.329Z,73.75
2019-02-16T02:53:31.815Z,73.71
2019-02-16T02:56:00.289Z,73.87
2019-02-16T02:58:28.692Z,73.70
2019-02-16T03:00:57.121Z,73.74
2019-02-16T03:03:25.510Z,73.71
2019-02-16T03:05:53.901Z,73.52
2019-02-16T03:08:22.288Z,73.65
2019-02-16T03:10:50.682Z,73.60
2019-02-16T03:13:19.079Z,73.50
2019-02-16T03:15:47.469Z,73.50
2019-02-16T03:18:15.880Z,73.54
2019-02-16T03:20:44.268Z,73.47
2019-02-16T03:23:15.042Z,73.45
2019-02-16T03:25:46.613Z,73.39
2019-02-16T03:28:27.101Z,73.42
2019-02-16T03:31:04.539Z,73.39
2019-02-16T03:33:44.732Z,73.22
2019-02-16T03:36:25.029Z,73.28
2019-02-16T03:38:56.470Z,73.25
2019-02-16T03:41:24.866Z,73.33
2019-02-16T03:43:53.255Z,73.44
2019-02-16T03:46:21.670Z,73.46
2019-02-16T03:48:50.076Z,73.39
2019-02-16T03:51:18.470Z,73.31
2019-02-16T03:53:47.263Z,73.29
2019-02-16T03:56:15.657Z,73.40
2019-02-16T03:58:44.048Z,73.33
2019-02-16T04:01:12.438Z,73.53
2019-02-16T04:03:40.828Z,73.26
2019-02-16T04:06:09.226Z,73.39
2019-02-16T04:08:37.608Z,73.36
2019-02-16T04:11:05.997Z,73.34
2019-02-16T04:13:34.457Z,73.52
2019-02-16T04:16:02.849Z,73.56
2019-02-16T04:18:31.246Z,73.43
2019-02-16T04:20:59.633Z,73.28
2019-02-16T04:23:28.048Z,73.36
2019-02-16T04:25:56.442Z,73.34
2019-02-16T04:28:24.834Z,73.33
2019-02-16T04:30:53.226Z,73.23
2019-02-16T04:33:21.626Z,73.12
2019-02-16T04:35:50.004Z,73.13
2019-02-16T04:38:18.397Z,73.20
2019-02-16T04:40:46.804Z,73.08
2019-02-16T04:43:15.192Z,73.08
2019-02-16T04:45:43.589Z,73.02
2019-02-16T04:48:11.979Z,73.10
2019-02-16T04:50:40.367Z,73.10
2019-02-16T04:53:08.793Z,73.17
2019-02-16T04:55:37.153Z,73.26
2019-02-16T04:58:05.617Z,73.12
2019-02-16T05:00:34.000Z,73.09
2019-02-16T05:03:02.404Z,73.15
2019-02-16T05:05:30.800Z,73.14
2019-02-16T05:07:59.245Z,73.03
2019-02-16T05:10:27.621Z,73.17
2019-02-16T05:12:56.014Z,73.14
2019-02-16T05:15:24.402Z,73.09
2019-02-16T05:17:52.800Z,73.18
2019-02-16T05:20:21.194Z,73.16
2019-02-16T05:22:49.581Z,73.14
2019-02-16T05:25:17.970Z,73.28
2019-02-16T05:27:46.358Z,73.37
2019-02-16T05:30:14.753Z,73.13
2019-02-16T05:32:43.165Z,73.24
2019-02-16T05:35:11.582Z,73.19
2019-02-16T05:37:39.968Z,73.17
2019-02-16T05:40:09.030Z,73.09
2019-02-16T05:42:37.423Z,73.15
2019-02-16T05:45:06.550Z,73.33
2019-02-16T05:47:34.945Z,73.29
2019-02-16T05:50:03.443Z,73.29
2019-02-16T05:52:31.836Z,73.40
2019-02-16T05:55:00.316Z,73.53
2019-02-16T05:57:28.648Z,73.33
2019-02-16T05:59:57.036Z,73.25
2019-02-16T06:02:25.430Z,73.23
2019-02-16T06:04:53.821Z,73.14
2019-02-16T06:07:22.217Z,73.11
2019-02-16T06:09:50.613Z,72.99
2019-02-16T06:12:18.999Z,72.81
2019-02-16T06:14:47.396Z,72.90
2019-02-16T06:17:15.789Z,72.90
2019-02-16T06:19:44.185Z,72.93
2019-02-16T06:22:12.573Z,72.96
2019-02-16T06:24:40.974Z,72.90
2019-02-16T06:27:09.392Z,72.88
2019-02-16T06:29:37.860Z,73.00
2019-02-16T06:32:06.258Z,73.07
2019-02-16T06:34:34.654Z,73.09
2019-02-16T06:37:04.768Z,72.79
2019-02-16T06:39:33.162Z,72.72
2019-02-16T06:42:01.553Z,72.76
2019-02-16T06:44:29.945Z,72.92
2019-02-16T06:46:58.345Z,72.92
2019-02-16T06:49:26.733Z,72.88
2019-02-16T06:51:55.140Z,72.74
2019-02-16T06:54:23.527Z,72.91
2019-02-16T06:57:02.392Z,72.83
2019-02-16T06:59:30.782Z,72.89
2019-02-16T07:01:59.175Z,72.90
2019-02-16T07:04:27.559Z,72.92
2019-02-16T07:06:55.988Z,72.75
2019-02-16T07:09:24.380Z,72.70
2019-02-16T07:11:52.784Z,72.60
2019-02-16T07:14:21.175Z,72.48
2019-02-16T07:16:51.208Z,72.56
2019-02-16T07:19:21.246Z,72.62
2019-02-16T07:21:49.653Z,72.72
2019-02-16T07:24:18.032Z,72.85
2019-02-16T07:26:46.430Z,72.75
2019-02-16T07:29:14.820Z,72.85
2019-02-16T07:31:43.213Z,72.98
2019-02-16T07:34:11.601Z,72.93
2019-02-16T07:36:40.016Z,72.80
2019-02-16T07:39:08.624Z,72.61
2019-02-16T07:41:37.020Z,72.68
2019-02-16T07:44:15.501Z,72.71
2019-02-16T07:46:51.265Z,72.81
2019-02-16T07:49:27.029Z,72.74
2019-02-16T07:51:57.119Z,72.78
2019-02-16T07:54:32.557Z,72.70
2019-02-16T07:57:05.065Z,72.69
2019-02-16T07:59:35.096Z,72.51
2019-02-16T08:02:05.133Z,72.53
2019-02-16T08:04:38.014Z,72.45
2019-02-16T08:07:11.109Z,72.39
2019-02-16T08:09:59.152Z,72.28
2019-02-16T08:12:47.519Z,72.15
2019-02-16T08:15:29.397Z,72.09
2019-02-16T08:17:59.452Z,72.09
2019-02-16T08:20:46.007Z,72.13
2019-02-16T08:23:40.004Z,72.24
2019-02-16T08:26:03.723Z,72.23
2019-02-16T08:28:36.516Z,71.96
2019-02-16T08:31:12.521Z,71.76
2019-02-16T08:33:57.765Z,71.84
2019-02-16T08:36:27.829Z,71.54
2019-02-16T08:38:58.116Z,71.47
2019-02-16T08:41:31.055Z,71.04
2019-02-16T08:44:07.252Z,71.03
2019-02-16T08:46:37.319Z,70.83
2019-02-16T08:49:13.909Z,71.12
2019-02-16T08:51:44.103Z,70.87
2019-02-16T08:54:14.129Z,70.93
2019-02-16T08:56:47.044Z,70.80
2019-02-16T08:59:22.895Z,70.80
2019-02-16T09:01:58.965Z,71.00
2019-02-16T09:04:44.084Z,70.82
2019-02-16T09:07:14.146Z,70.89
2019-02-16T09:09:44.177Z,70.82
2019-02-16T09:12:16.772Z,70.46
2019-02-16T09:14:49.245Z,70.46
2019-02-16T09:17:35.385Z,70.40
2019-02-16T09:20:12.624Z,70.48
2019-02-16T09:22:54.634Z,70.50
2019-02-16T09:25:37.009Z,70.67
2019-02-16T09:28:09.520Z,70.64
2019-02-16T09:30:39.548Z,69.86
2019-02-16T09:33:26.046Z,69.80
2019-02-16T09:35:59.235Z,69.58
2019-02-16T09:38:35.450Z,69.46
2019-02-16T09:41:08.031Z,69.17
2019-02-16T09:43:47.071Z,69.06
2019-02-16T09:46:22.772Z,68.82
2019-02-16T09:48:52.932Z,68.81
2019-02-16T09:51:22.975Z,68.61
2019-02-16T09:54:07.967Z,68.90
2019-02-16T09:56:30.752Z,68.70
2019-02-16T09:59:06.621Z,68.74
2019-02-16T10:01:52.084Z,68.62
2019-02-16T10:04:27.779Z,68.58
2019-02-16T10:07:06.675Z,68.02
2019-02-16T10:09:39.427Z,66.75
2019-02-16T10:12:09.482Z,66.43
2019-02-16T10:14:51.450Z,66.60
2019-02-16T10:17:27.519Z,66.64
2019-02-16T10:19:57.612Z,66.77
2019-02-16T10:22:45.689Z,66.71
2019-02-16T10:25:15.821Z,66.66
2019-02-16T10:27:58.143Z,65.91
2019-02-16T10:30:34.116Z,66.06
2019-02-16T10:33:04.218Z,66.15
2019-02-16T10:35:34.245Z,66.07
2019-02-16T10:38:04.266Z,65.47
2019-02-16T10:40:34.360Z,65.06
2019-02-16T10:43:13.112Z,65.09
2019-02-16T10:45:43.145Z,65.12
2019-02-16T10:48:15.894Z,64.78
2019-02-16T10:50:46.091Z,64.74
2019-02-16T10:53:21.961Z,64.78
2019-02-16T10:55:57.840Z,64.80
2019-02-16T10:58:36.966Z,64.38
2019-02-16T11:01:15.668Z,64.58
2019-02-16T11:03:48.510Z,64.61
2019-02-16T11:06:36.994Z,64.23
2019-02-16T11:09:14.579Z,64.57
2019-02-16T11:12:00.705Z,64.41
2019-02-16T11:14:45.735Z,64.02
2019-02-16T11:17:25.019Z,64.04
2019-02-16T11:20:10.947Z,64.16
2019-02-16T11:22:43.686Z,64.19
2019-02-16T11:25:19.692Z,64.03
2019-02-16T11:28:04.737Z,64.08
2019-02-16T11:30:40.746Z,64.00
2019-02-16T11:33:25.793Z,63.50
2019-02-16T11:35:55.819Z,63.87
2019-02-16T11:38:25.896Z,63.53
2019-02-16T11:40:55.878Z,63.88
2019-02-16T11:43:41.194Z,64.08
2019-02-16T11:46:13.797Z,63.21
2019-02-16T11:48:46.492Z,63.18
2019-02-16T11:51:16.534Z,62.87
2019-02-16T11:53:46.687Z,63.10
2019-02-16T11:56:19.382Z,62.83
2019-02-16T11:58:52.081Z,62.61
2019-02-16T12:01:22.118Z,62.40
2019-02-16T12:03:52.159Z,62.21
2019-02-16T12:06:22.243Z,61.88
2019-02-16T12:08:58.220Z,61.34
2019-02-16T12:11:34.266Z,60.69
2019-02-16T12:14:17.805Z,59.95
2019-02-16T12:16:50.661Z,59.41
2019-02-16T12:19:23.365Z,59.59
2019-02-16T12:21:53.401Z,59.01
2019-02-16T12:24:35.433Z,59.84
2019-02-16T12:27:11.227Z,60.08
2019-02-16T12:29:41.368Z,60.36
2019-02-16T12:32:13.824Z,60.37
2019-02-16T12:34:46.275Z,60.31
2019-02-16T12:37:28.294Z,60.14
2019-02-16T12:39:58.308Z,59.50
2019-02-16T12:42:46.405Z,58.78
2019-02-16T12:45:22.413Z,58.65
2019-02-16T12:48:07.434Z,58.63
2019-02-16T12:50:46.301Z,58.64
2019-02-16T12:53:16.362Z,58.61
2019-02-16T12:55:52.099Z,58.89
2019-02-16T12:58:33.620Z,59.01
2019-02-16T13:01:20.078Z,59.02
2019-02-16T13:04:05.954Z,58.88
2019-02-16T13:06:35.980Z,58.29
2019-02-16T13:09:08.286Z,58.50
2019-02-16T13:11:40.729Z,59.00
2019-02-16T13:14:13.970Z,58.60
2019-02-16T13:16:59.326Z,58.63
2019-02-16T13:19:35.352Z,58.56
2019-02-16T13:22:08.351Z,58.01
2019-02-16T13:24:38.384Z,58.21
2019-02-16T13:27:11.112Z,58.25
2019-02-16T13:29:41.191Z,57.68
2019-02-16T13:32:11.216Z,57.77
2019-02-16T13:34:41.316Z,57.62
2019-02-16T13:37:17.077Z,57.53
2019-02-16T13:39:52.569Z,57.11
2019-02-16T13:42:25.052Z,56.15
2019-02-16T13:44:55.098Z,56.19
2019-02-16T13:47:25.193Z,55.99
2019-02-16T13:49:55.241Z,56.57
2019-02-16T13:52:34.245Z,55.87
2019-02-16T13:55:04.291Z,55.80
2019-02-16T13:57:50.820Z,56.31
2019-02-16T14:00:20.825Z,56.42
2019-02-16T14:02:51.762Z,55.58
2019-02-16T14:05:38.176Z,55.60
2019-02-16T14:08:13.908Z,55.63
2019-02-16T14:10:49.720Z,55.84
2019-02-16T14:13:19.844Z,55.67
2019-02-16T14:15:52.284Z,55.68
2019-02-16T14:18:20.678Z,55.31
2019-02-16T14:20:49.151Z,55.72
2019-02-16T14:23:17.569Z,55.93
2019-02-16T14:25:45.999Z,55.39
2019-02-16T14:28:14.359Z,56.03
2019-02-16T14:30:42.749Z,56.05
2019-02-16T14:33:11.216Z,56.29
2019-02-16T14:35:39.607Z,56.35
2019-02-16T14:38:19.600Z,56.72
2019-02-16T14:40:48.174Z,56.51
2019-02-16T14:43:16.655Z,56.39
2019-02-16T14:45:45.023Z,56.40
2019-02-16T14:48:13.426Z,56.73
2019-02-16T14:50:41.870Z,56.86
2019-02-16T14:53:10.312Z,56.67
2019-02-16T14:55:38.699Z,56.96
2019-02-16T14:58:07.085Z,57.16
2019-02-16T15:00:35.558Z,57.25
2019-02-16T15:03:04.213Z,57.38
2019-02-16T15:05:33.599Z,57.06
2019-02-16T15:08:02.005Z,57.18
2019-02-16T15:10:30.385Z,57.16
2019-02-16T15:12:58.784Z,56.88
2019-02-16T15:15:27.175Z,57.01
2019-02-16T15:17:55.586Z,57.13
2019-02-16T15:20:24.045Z,57.31
2019-02-16T15:22:52.451Z,57.43
2019-02-16T15:25:20.836Z,57.19
2019-02-16T15:27:49.240Z,56.72
2019-02-16T15:30:19.677Z,55.97
2019-02-16T15:32:48.073Z,56.16
2019-02-16T15:35:16.469Z,56.52
2019-02-16T15:37:44.863Z,56.69
2019-02-16T15:40:14.118Z,56.52
2019-02-16T15:42:42.520Z,56.56
2019-02-16T15:45:15.249Z,56.54
2019-02-16T15:47:44.603Z,56.56
2019-02-16T15:50:16.785Z,56.54
2019-02-16T15:52:45.178Z,56.51
2019-02-16T15:55:13.560Z,56.54
2019-02-16T15:57:41.988Z,56.30
2019-02-16T16:00:14.564Z,56.70
2019-02-16T16:02:42.939Z,56.63
2019-02-16T16:05:11.324Z,57.16
2019-02-16T16:07:41.636Z,57.93
2019-02-16T16:10:14.477Z,58.63
2019-02-16T16:12:44.499Z,58.94
2019-02-16T16:15:20.034Z,59.25
2019-02-16T16:17:58.823Z,59.66
2019-02-16T16:20:44.797Z,60.01
2019-02-16T16:23:26.462Z,60.40
2019-02-16T16:26:18.998Z,60.65
2019-02-16T16:29:00.881Z,60.98
2019-02-16T16:31:33.343Z,61.23
2019-02-16T16:34:19.262Z,61.49
2019-02-16T16:36:52.075Z,61.80
2019-02-16T16:39:22.104Z,62.16
2019-02-16T16:41:52.198Z,62.25
2019-02-16T16:44:24.676Z,62.46
2019-02-16T16:47:00.222Z,62.72
2019-02-16T16:49:32.791Z,63.09
2019-02-16T16:52:19.027Z,63.27
2019-02-16T16:54:57.580Z,63.25
2019-02-16T16:57:33.642Z,63.36
2019-02-16T17:00:03.687Z,63.48
2019-02-16T17:02:43.027Z,63.52
2019-02-16T17:05:15.536Z,63.76
2019-02-16T17:08:01.711Z,63.88
2019-02-16T17:10:31.733Z,64.07
2019-02-16T17:13:04.409Z,64.22
2019-02-16T17:15:37.606Z,64.42
2019-02-16T17:18:24.022Z,64.62
2019-02-16T17:20:56.758Z,64.84
2019-02-16T17:23:29.513Z,65.12
2019-02-16T17:25:59.534Z,65.30
2019-02-16T17:28:32.316Z,65.57
2019-02-16T17:31:02.341Z,65.79
2019-02-16T17:33:32.439Z,65.89
2019-02-16T17:36:11.275Z,66.03
2019-02-16T17:38:50.343Z,66.19
2019-02-16T17:41:23.254Z,66.37
2019-02-16T17:43:53.290Z,66.39
2019-02-16T17:46:38.034Z,66.62
2019-02-16T17:49:23.230Z,66.66
2019-02-16T17:52:05.221Z,66.79
2019-02-16T17:54:44.480Z,66.87
2019-02-16T17:57:14.521Z,66.80
2019-02-16T17:59:44.551Z,66.70
2019-02-16T18:02:14.582Z,66.73
2019-02-16T18:04:47.539Z,66.85
2019-02-16T18:07:17.574Z,66.92
2019-02-16T18:09:50.597Z,67.03
2019-02-16T18:12:23.244Z,67.16
2019-02-16T18:14:53.271Z,67.29
2019-02-16T18:17:23.295Z,67.47
2019-02-16T18:19:56.488Z,67.58
2019-02-16T18:22:26.516Z,67.89
2019-02-16T18:25:08.873Z,67.87
2019-02-16T18:27:41.577Z,67.94
2019-02-16T18:30:27.926Z,67.87
2019-02-16T18:33:14.105Z,67.87
2019-02-16T18:36:01.837Z,67.87
2019-02-16T18:38:31.873Z,67.92
2019-02-16T18:41:07.874Z,67.87
2019-02-16T18:43:40.889Z,67.96
2019-02-16T18:46:14.098Z,68.04
2019-02-16T18:48:47.470Z,68.12
2019-02-16T18:51:32.792Z,68.19
2019-02-16T18:54:19.016Z,68.27
2019-02-16T18:56:54.701Z,68.37
2019-02-16T18:59:33.829Z,68.50
2019-02-16T19:02:03.927Z,68.64
2019-02-16T19:04:46.208Z,68.72
2019-02-16T19:07:16.228Z,68.69
2019-02-16T19:09:58.561Z,68.90
2019-02-16T19:12:28.584Z,68.93
2019-02-16T19:15:04.329Z,69.03
2019-02-16T19:17:34.347Z,69.22
2019-02-16T19:20:16.478Z,69.31
2019-02-16T19:22:51.956Z,69.41
2019-02-16T19:25:24.651Z,69.40
2019-02-16T19:27:54.693Z,69.45
2019-02-16T19:30:39.738Z,69.66
2019-02-16T19:33:18.508Z,69.68
2019-02-16T19:35:51.199Z,69.70
2019-02-16T19:38:21.226Z,69.73
2019-02-16T19:40:54.071Z,69.87
2019-02-16T19:43:28.138Z,69.90
2019-02-16T19:46:01.374Z,70.05
2019-02-16T19:48:33.802Z,70.13
2019-02-16T19:51:03.825Z,70.14
2019-02-16T19:53:43.094Z,70.15
2019-02-16T19:56:19.275Z,70.19
2019-02-16T19:59:06.019Z,70.18
2019-02-16T20:01:51.151Z,70.17
2019-02-16T20:04:24.370Z,70.21
2019-02-16T20:07:12.996Z,70.16
2019-02-16T20:09:58.293Z,70.14
2019-02-16T20:12:29.759Z,70.20
2019-02-16T20:14:59.948Z,70.30
2019-02-16T20:17:35.798Z,70.52
2019-02-16T20:20:19.622Z,70.47
2019-02-16T20:23:06.841Z,70.54
2019-02-16T20:25:47.266Z,70.63
2019-02-16T20:28:19.284Z,70.57
2019-02-16T20:30:50.059Z,70.61
2019-02-16T20:33:24.813Z,70.77
2019-02-16T20:35:58.108Z,70.88
2019-02-16T20:38:44.420Z,70.93
2019-02-16T20:41:15.639Z,70.88
2019-02-16T20:43:45.775Z,71.04
2019-02-16T20:46:19.083Z,70.91
2019-02-16T20:48:52.731Z,70.96
2019-02-16T20:51:38.290Z,71.22
2019-02-16T20:54:26.047Z,71.12
2019-02-16T20:57:06.192Z,71.03
2019-02-16T20:59:36.212Z,70.91
2019-02-16T21:02:09.155Z,71.06
2019-02-16T21:04:39.316Z,71.30
2019-02-16T21:07:12.108Z,71.78
2019-02-16T21:09:53.829Z,71.84
2019-02-16T21:12:39.076Z,71.71
2019-02-16T21:15:09.677Z,71.54
2019-02-16T21:17:48.437Z,71.31
2019-02-16T21:20:36.811Z,71.27
2019-02-16T21:23:22.943Z,71.29
2019-02-16T21:25:52.985Z,71.39
2019-02-16T21:28:24.480Z,71.30
2019-02-16T21:31:00.389Z,71.23
2019-02-16T21:33:33.240Z,71.36
2019-02-16T21:36:18.303Z,71.36
2019-02-16T21:39:03.075Z,71.33
2019-02-16T21:41:32.033Z,71.23
2019-02-16T21:44:04.944Z,71.53
2019-02-16T21:46:37.652Z,71.49
2019-02-16T21:49:24.812Z,71.48
2019-02-16T21:52:00.433Z,71.71
2019-02-16T21:54:36.474Z,71.61
2019-02-16T21:57:06.510Z,71.60
2019-02-16T21:59:39.601Z,71.49
2019-02-16T22:02:09.633Z,71.54
2019-02-16T22:04:57.819Z,71.49
2019-02-16T22:07:44.111Z,71.40
2019-02-16T22:10:14.163Z,71.66
2019-02-16T22:12:49.931Z,71.85
2019-02-16T22:15:18.322Z,71.82
2019-02-16T22:17:46.711Z,71.80
2019-02-16T22:20:15.100Z,71.70
2019-02-16T22:22:43.505Z,71.99
2019-02-16T22:25:11.975Z,72.12
2019-02-16T22:27:40.356Z,72.04
2019-02-16T22:30:10.481Z,72.10
2019-02-16T22:32:38.871Z,72.10
2019-02-16T22:35:07.691Z,71.97
2019-02-16T22:37:36.084Z,72.04
2019-02-16T22:40:05.208Z,71.86
2019-02-16T22:42:33.601Z,71.94
2019-02-16T22:45:01.993Z,71.94
2019-02-16T22:47:30.380Z,71.98
2019-02-16T22:49:58.773Z,71.73
2019-02-16T22:52:27.161Z,71.74
2019-02-16T22:54:55.550Z,71.76
2019-02-16T22:57:24.007Z,71.82
2019-02-16T22:59:52.424Z,71.78
2019-02-16T23:02:20.826Z,71.87
2019-02-16T23:04:49.208Z,72.05
2019-02-16T23:07:17.671Z,71.82
2019-02-16T23:09:46.004Z,71.82
2019-02-16T23:12:14.399Z,71.81
2019-02-16T23:14:42.794Z,71.68
2019-02-16T23:17:11.421Z,71.60
2019-02-16T23:19:39.822Z,71.74
2019-02-16T23:22:08.298Z,71.87
2019-02-16T23:24:36.697Z,71.82
2019-02-16T23:27:05.163Z,71.68
2019-02-16T23:29:33.547Z,71.66
2019-02-16T23:32:01.945Z,71.77
2019-02-16T23:34:30.347Z,71.80
2019-02-16T23:36:58.748Z,71.75
2019-02-16T23:39:27.159Z,71.92
2019-02-16T23:41:55.533Z,72.00
2019-02-16T23:44:23.925Z,72.11
2019-02-16T23:46:52.318Z,72.00
2019-02-16T23:49:20.710Z,72.18
2019-02-16T23:51:49.109Z,72.01
2019-02-16T23:54:17.517Z,72.01
2019-02-16T23:56:45.933Z,72.10
2019-02-16T23:59:14.308Z,71.97
